createdAt,value
2022-10-10T00:01:15.629Z,19.33
2022-10-10T00:03:43.258Z,20.45
2022-10-10T00:06:11.508Z,17.75
2022-10-10T00:08:38.463Z,18.33
2022-10-10T00:11:06.124Z,19.92
2022-10-10T00:13:33.827Z,17.65
2022-10-10T00:16:00.732Z,19.08
2022-10-10T00:18:27.748Z,18.48
2022-10-10T00:20:54.528Z,21.35
2022-10-10T00:23:21.370Z,16.92
2022-10-10T00:25:48.702Z,23.98
2022-10-10T00:28:15.518Z,17.70
2022-10-10T00:30:42.472Z,21.60
2022-10-10T00:33:09.301Z,16.98
2022-10-10T00:35:36.595Z,15.45
2022-10-10T00:38:03.380Z,14.82
2022-10-10T00:40:30.860Z,18.33
2022-10-10T00:42:57.768Z,18.98
2022-10-10T00:45:27.623Z,16.45
2022-10-10T00:48:14.170Z,17.83
2022-10-10T00:51:01.012Z,13.30
2022-10-10T00:53:33.868Z,16.17
2022-10-10T00:56:02.269Z,16.38
2022-10-10T00:58:29.323Z,19.20
2022-10-10T01:00:56.627Z,18.83
2022-10-10T01:03:23.823Z,16.50
2022-10-10T01:05:50.990Z,18.70
2022-10-10T01:08:19.547Z,17.02
2022-10-10T01:11:15.208Z,17.83
2022-10-10T01:14:16.243Z,20.90
2022-10-10T01:16:53.186Z,17.23
2022-10-10T01:19:40.906Z,18.77
2022-10-10T01:22:25.069Z,19.15
2022-10-10T01:24:56.923Z,16.08
2022-10-10T01:27:45.689Z,20.20
2022-10-10T01:30:20.066Z,17.15
2022-10-10T01:32:54.439Z,18.98
2022-10-10T01:35:40.041Z,18.33
2022-10-10T01:38:37.438Z,19.95
2022-10-10T01:41:14.831Z,16.90
2022-10-10T01:43:42.116Z,15.82
2022-10-10T01:46:14.449Z,16.02
2022-10-10T01:48:42.642Z,14.00
2022-10-10T01:51:32.566Z,19.75
2022-10-10T01:54:17.850Z,14.82
2022-10-10T01:57:11.729Z,23.13
2022-10-10T01:59:59.536Z,16.27
2022-10-10T02:02:32.052Z,17.65
2022-10-10T02:05:09.022Z,17.73
2022-10-10T02:07:48.928Z,18.90
2022-10-10T02:10:21.451Z,14.45
2022-10-10T02:12:49.886Z,13.98
2022-10-10T02:15:21.749Z,16.00
2022-10-10T02:17:50.521Z,15.10
2022-10-10T02:20:20.679Z,15.15
2022-10-10T02:22:49.823Z,14.98
2022-10-10T02:25:20.286Z,14.70
2022-10-10T02:27:53.657Z,20.23
2022-10-10T02:30:21.245Z,19.52
2022-10-10T02:32:52.150Z,16.08
2022-10-10T02:35:25.268Z,16.30
2022-10-10T02:37:54.224Z,16.23
2022-10-10T02:40:25.077Z,14.30
2022-10-10T02:42:53.626Z,15.30
2022-10-10T02:45:21.931Z,18.70
2022-10-10T02:47:48.773Z,13.68
2022-10-10T02:50:15.573Z,21.33
2022-10-10T02:52:42.300Z,15.07
2022-10-10T02:55:09.155Z,18.02
2022-10-10T02:57:35.977Z,16.35
2022-10-10T03:00:02.936Z,15.70
2022-10-10T03:02:29.643Z,18.00
2022-10-10T03:04:56.608Z,17.13
2022-10-10T03:07:23.334Z,15.27
2022-10-10T03:09:49.977Z,17.92
2022-10-10T03:12:16.993Z,14.55
2022-10-10T03:14:43.752Z,15.27
2022-10-10T03:17:10.529Z,13.90
2022-10-10T03:19:37.555Z,17.25
2022-10-10T03:22:04.297Z,14.65
2022-10-10T03:24:31.175Z,14.93
2022-10-10T03:26:58.017Z,14.43
2022-10-10T03:29:24.716Z,16.83
2022-10-10T03:31:51.487Z,15.90
2022-10-10T03:34:18.270Z,13.82
2022-10-10T03:36:44.920Z,15.52
2022-10-10T03:39:11.882Z,16.95
2022-10-10T03:41:38.552Z,19.75
2022-10-10T03:44:05.209Z,13.48
2022-10-10T03:46:31.900Z,16.30
2022-10-10T03:48:58.625Z,16.15
2022-10-10T03:51:25.383Z,15.27
2022-10-10T03:53:52.043Z,18.88
2022-10-10T03:56:18.776Z,15.18
2022-10-10T03:58:45.423Z,19.80
2022-10-10T04:01:12.334Z,16.77
2022-10-10T04:03:39.285Z,17.13
2022-10-10T04:06:06.172Z,18.40
2022-10-10T04:08:32.942Z,15.55
2022-10-10T04:10:59.683Z,15.35
2022-10-10T04:13:27.512Z,19.80
2022-10-10T04:15:55.664Z,13.05
2022-10-10T04:18:23.511Z,17.30
2022-10-10T04:20:50.213Z,17.75
2022-10-10T04:23:16.983Z,15.65
2022-10-10T04:25:44.222Z,14.00
2022-10-10T04:28:16.024Z,17.73
2022-10-10T04:30:42.790Z,13.25
2022-10-10T04:33:09.765Z,16.08
2022-10-10T04:35:37.329Z,18.10
2022-10-10T04:38:04.615Z,17.50
2022-10-10T04:40:31.643Z,14.75
2022-10-10T04:42:58.382Z,15.25
2022-10-10T04:45:26.543Z,16.50
2022-10-10T04:47:56.855Z,16.95
2022-10-10T04:50:24.407Z,21.10
2022-10-10T04:52:51.281Z,17.65
2022-10-10T04:55:18.293Z,18.45
2022-10-10T04:57:45.009Z,14.40
2022-10-10T05:00:12.219Z,15.48
2022-10-10T05:02:39.058Z,21.13
2022-10-10T05:05:06.386Z,16.48
2022-10-10T05:07:33.048Z,20.33
2022-10-10T05:09:59.798Z,16.70
2022-10-10T05:12:26.482Z,15.55
2022-10-10T05:14:53.166Z,16.40
2022-10-10T05:17:20.508Z,15.10
2022-10-10T05:19:47.248Z,15.98
2022-10-10T05:22:13.893Z,17.80
2022-10-10T05:24:40.656Z,17.90
2022-10-10T05:27:07.339Z,18.13
2022-10-10T05:29:34.103Z,14.10
2022-10-10T05:32:01.048Z,12.48
2022-10-10T05:34:27.913Z,13.20
2022-10-10T05:36:56.712Z,15.23
2022-10-10T05:39:23.782Z,13.77
2022-10-10T05:41:50.590Z,14.60
2022-10-10T05:44:17.250Z,13.77
2022-10-10T05:46:43.929Z,14.25
2022-10-10T05:49:10.680Z,18.38
2022-10-10T05:51:37.363Z,16.13
2022-10-10T05:54:05.167Z,18.75
2022-10-10T05:56:32.864Z,18.42
2022-10-10T05:58:59.607Z,14.15
2022-10-10T06:01:26.433Z,14.10
2022-10-10T06:03:55.899Z,13.38
2022-10-10T06:06:25.800Z,16.38
2022-10-10T06:08:53.257Z,13.77
2022-10-10T06:11:20.787Z,14.48
2022-10-10T06:13:50.816Z,16.42
2022-10-10T06:16:17.539Z,19.23
2022-10-10T06:18:44.835Z,14.60
2022-10-10T06:21:12.555Z,15.13
2022-10-10T06:23:39.571Z,15.70
2022-10-10T06:26:06.375Z,17.73
2022-10-10T06:28:33.461Z,16.08
2022-10-10T06:31:06.940Z,16.55
2022-10-10T06:33:34.190Z,14.90
2022-10-10T06:36:05.597Z,17.52
2022-10-10T06:38:35.805Z,16.35
2022-10-10T06:41:04.954Z,17.92
2022-10-10T06:43:32.806Z,18.05
2022-10-10T06:46:00.589Z,15.80
2022-10-10T06:48:29.895Z,12.70
2022-10-10T06:51:00.804Z,17.67
2022-10-10T06:53:28.015Z,18.65
2022-10-10T06:55:55.868Z,19.60
2022-10-10T06:58:24.396Z,17.98
2022-10-10T07:01:00.244Z,18.83
2022-10-10T07:03:28.433Z,19.70
2022-10-10T07:06:00.910Z,17.77
2022-10-10T07:08:29.322Z,16.75
2022-10-10T07:10:56.984Z,17.02
2022-10-10T07:13:23.700Z,16.42
2022-10-10T07:15:50.502Z,20.33
2022-10-10T07:18:18.328Z,24.27
2022-10-10T07:20:45.068Z,14.27
2022-10-10T07:23:11.903Z,15.50
2022-10-10T07:25:40.186Z,15.23
2022-10-10T07:28:08.120Z,15.10
2022-10-10T07:30:40.882Z,14.60
2022-10-10T07:33:07.597Z,16.02
2022-10-10T07:35:34.245Z,16.50
2022-10-10T07:38:01.170Z,18.38
2022-10-10T07:40:27.894Z,13.85
2022-10-10T07:42:54.575Z,12.90
2022-10-10T07:45:21.514Z,14.40
2022-10-10T07:47:48.479Z,15.82
2022-10-10T07:50:15.328Z,15.18
2022-10-10T07:52:42.467Z,18.17
2022-10-10T07:55:10.750Z,17.98
2022-10-10T07:57:37.734Z,12.00
2022-10-10T08:00:07.108Z,13.35
2022-10-10T08:02:33.868Z,14.23
2022-10-10T08:05:00.674Z,15.10
2022-10-10T08:07:27.890Z,13.05
2022-10-10T08:09:54.601Z,12.80
2022-10-10T08:12:21.259Z,22.27
2022-10-10T08:14:48.389Z,11.35
2022-10-10T08:17:15.364Z,12.73
2022-10-10T08:19:42.190Z,16.05
2022-10-10T08:22:08.896Z,14.05
2022-10-10T08:24:35.660Z,14.43
2022-10-10T08:27:02.406Z,10.48
2022-10-10T08:29:29.552Z,15.18
2022-10-10T08:31:56.535Z,11.80
2022-10-10T08:34:23.251Z,12.40
2022-10-10T08:36:50.216Z,14.25
2022-10-10T08:39:17.771Z,12.68
2022-10-10T08:41:55.333Z,13.30
2022-10-10T08:44:42.942Z,17.00
2022-10-10T08:47:09.644Z,15.68
2022-10-10T08:49:51.519Z,13.05
2022-10-10T08:52:42.800Z,15.48
2022-10-10T08:55:33.520Z,12.48
2022-10-10T08:58:20.546Z,13.32
2022-10-10T09:01:02.220Z,13.10
2022-10-10T09:03:43.019Z,15.02
2022-10-10T09:06:16.985Z,12.68
2022-10-10T09:08:43.746Z,15.55
2022-10-10T09:11:21.332Z,12.35
2022-10-10T09:13:53.733Z,13.60
2022-10-10T09:16:31.727Z,14.93
2022-10-10T09:19:01.572Z,15.38
2022-10-10T09:21:35.613Z,15.48
2022-10-10T09:24:42.599Z,13.60
2022-10-10T09:27:22.523Z,13.82
2022-10-10T09:29:56.859Z,15.13
2022-10-10T09:32:28.948Z,16.58
2022-10-10T09:35:19.889Z,19.95
2022-10-10T09:37:50.671Z,14.18
2022-10-10T09:40:38.885Z,13.65
2022-10-10T09:43:21.339Z,15.55
2022-10-10T09:45:56.832Z,14.90
2022-10-10T09:50:54.003Z,14.57
2022-10-10T09:53:20.768Z,13.98
2022-10-10T09:55:50.276Z,19.38
2022-10-10T09:58:20.546Z,14.95
2022-10-10T10:00:47.518Z,17.60
2022-10-10T10:03:19.240Z,20.35
2022-10-10T10:05:59.122Z,13.15
2022-10-10T10:08:32.320Z,18.48
2022-10-10T10:11:00.664Z,18.17
2022-10-10T10:13:31.797Z,16.30
2022-10-10T10:16:10.127Z,18.45
2022-10-10T10:18:47.925Z,13.20
2022-10-10T10:21:20.581Z,14.48
2022-10-10T10:24:03.446Z,13.38
2022-10-10T10:26:46.754Z,16.40
2022-10-10T10:29:29.100Z,13.25
2022-10-10T10:32:33.197Z,13.27
2022-10-10T10:35:08.932Z,11.07
2022-10-10T10:38:09.882Z,16.55
2022-10-10T10:40:45.524Z,13.32
2022-10-10T10:43:35.462Z,16.33
2022-10-10T10:46:23.223Z,14.00
2022-10-10T10:49:05.624Z,13.98
2022-10-10T10:51:50.656Z,12.10
2022-10-10T10:54:26.067Z,14.80
2022-10-10T10:57:31.926Z,12.60
2022-10-10T11:00:16.923Z,11.60
2022-10-10T11:05:20.844Z,13.93
2022-10-10T11:06:32.697Z,16.92
2022-10-10T11:09:44.976Z,12.68
2022-10-10T11:12:23.932Z,13.40
2022-10-10T11:15:21.181Z,14.10
2022-10-10T11:17:56.826Z,10.68
2022-10-10T11:20:36.584Z,15.85
2022-10-10T11:23:17.663Z,13.30
2022-10-10T11:25:50.056Z,11.70
2022-10-10T11:28:26.504Z,17.30
2022-10-10T11:31:11.700Z,9.45
2022-10-10T11:33:46.942Z,11.40
2022-10-10T11:36:18.827Z,10.70
2022-10-10T11:39:00.132Z,10.32
2022-10-10T11:41:50.820Z,9.35
2022-10-10T11:44:24.744Z,10.38
2022-10-10T11:47:13.477Z,10.05
2022-10-10T11:50:11.558Z,11.38
2022-10-10T11:53:04.329Z,12.93
2022-10-10T11:55:47.743Z,12.93
2022-10-10T11:58:33.442Z,22.27
2022-10-10T12:01:06.996Z,12.77
2022-10-10T12:03:34.149Z,12.57
2022-10-10T12:06:12.316Z,17.65
2022-10-10T12:08:58.284Z,16.00
2022-10-10T12:11:43.346Z,12.02
2022-10-10T12:14:15.391Z,13.40
2022-10-10T12:16:42.407Z,14.85
2022-10-10T12:19:20.325Z,11.63
2022-10-10T12:22:01.807Z,20.13
2022-10-10T12:25:07.403Z,12.52
2022-10-10T12:27:46.595Z,14.93
2022-10-10T12:30:24.944Z,12.88
2022-10-10T12:32:54.747Z,13.98
2022-10-10T12:35:29.819Z,12.02
2022-10-10T12:38:05.887Z,14.55
2022-10-10T12:40:34.285Z,12.90
2022-10-10T12:43:04.708Z,14.57
2022-10-10T12:45:31.378Z,17.60
2022-10-10T12:48:06.375Z,14.55
2022-10-10T12:50:40.358Z,13.35
2022-10-10T12:53:12.904Z,11.75
2022-10-10T12:55:43.065Z,11.02
2022-10-10T12:58:26.052Z,11.63
2022-10-10T13:00:57.089Z,9.88
2022-10-10T13:03:42.588Z,10.05
2022-10-10T13:06:35.885Z,10.32
2022-10-10T13:09:04.209Z,12.80
2022-10-10T13:11:30.913Z,10.40
2022-10-10T13:13:57.771Z,11.25
2022-10-10T13:16:32.589Z,18.33
2022-10-10T13:19:00.697Z,13.43
2022-10-10T13:21:32.107Z,12.10
2022-10-10T13:24:03.695Z,8.02
2022-10-10T13:26:46.367Z,12.60
2022-10-10T13:29:18.077Z,12.73
2022-10-10T13:31:45.160Z,18.02
2022-10-10T13:34:17.304Z,10.43
2022-10-10T13:36:44.983Z,12.45
2022-10-10T13:39:18.710Z,11.00
2022-10-10T13:41:49.087Z,12.68
2022-10-10T13:44:22.590Z,11.95
2022-10-10T13:46:49.533Z,9.23
2022-10-10T13:49:34.700Z,10.30
2022-10-10T13:52:19.851Z,12.43
2022-10-10T13:54:48.389Z,11.63
2022-10-10T13:57:20.120Z,16.70
2022-10-10T14:00:21.722Z,12.73
2022-10-10T14:02:49.936Z,16.75
2022-10-10T14:05:29.110Z,9.95
2022-10-10T14:07:57.283Z,12.18
2022-10-10T14:10:26.659Z,12.77
2022-10-10T14:12:58.959Z,14.82
2022-10-10T14:15:37.196Z,11.48
2022-10-10T14:18:18.646Z,13.90
2022-10-10T14:20:46.202Z,13.25
2022-10-10T14:23:13.670Z,13.82
2022-10-10T14:25:42.446Z,10.43
2022-10-10T14:28:24.485Z,10.23
2022-10-10T14:30:51.309Z,9.52
2022-10-10T14:33:19.940Z,12.27
2022-10-10T14:35:48.424Z,13.13
2022-10-10T14:38:15.955Z,11.75
2022-10-10T14:40:45.116Z,12.05
2022-10-10T14:43:12.211Z,9.80
2022-10-10T14:45:39.220Z,13.93
2022-10-10T14:48:06.524Z,9.13
2022-10-10T14:50:40.935Z,7.50
2022-10-10T14:53:08.086Z,11.68
2022-10-10T14:55:34.851Z,11.75
2022-10-10T14:58:01.571Z,9.13
2022-10-10T15:00:28.867Z,11.70
2022-10-10T15:02:56.183Z,10.18
2022-10-10T15:05:23.065Z,9.40
2022-10-10T15:07:53.465Z,13.32
2022-10-10T15:10:35.714Z,12.73
2022-10-10T15:13:03.374Z,11.48
2022-10-10T15:15:30.216Z,13.88
2022-10-10T15:18:00.437Z,13.98
2022-10-10T15:20:33.173Z,10.50
2022-10-10T15:23:07.517Z,9.18
2022-10-10T15:25:34.647Z,12.32
2022-10-10T15:28:05.235Z,29.58
2022-10-10T15:30:32.101Z,17.55
2022-10-10T15:32:58.780Z,10.77
2022-10-10T15:35:26.135Z,13.50
2022-10-10T15:37:53.037Z,9.98
2022-10-10T15:40:23.736Z,12.48
2022-10-10T15:42:51.287Z,14.60
2022-10-10T15:45:43.590Z,13.88
2022-10-10T15:48:05.880Z,18.30
2022-10-10T15:50:34.524Z,10.57
2022-10-10T15:53:01.273Z,10.20
2022-10-10T15:55:27.909Z,15.95
2022-10-10T15:57:54.596Z,10.32
2022-10-10T16:00:21.304Z,12.45
2022-10-10T16:02:48.027Z,12.93
2022-10-10T16:05:14.892Z,11.68
2022-10-10T16:07:47.662Z,11.65
2022-10-10T16:10:15.468Z,14.00
2022-10-10T16:12:42.415Z,12.55
2022-10-10T16:15:09.611Z,14.00
2022-10-10T16:17:36.397Z,12.20
2022-10-10T16:20:03.752Z,10.38
2022-10-10T16:22:30.483Z,11.68
2022-10-10T16:25:20.827Z,10.43
2022-10-10T16:27:44.642Z,11.10
2022-10-10T16:30:11.759Z,11.45
2022-10-10T16:32:42.412Z,11.88
2022-10-10T16:35:10.799Z,9.73
2022-10-10T16:37:38.442Z,11.13
2022-10-10T16:40:06.089Z,16.40
2022-10-10T16:42:32.867Z,12.90
2022-10-10T16:44:59.520Z,9.55
2022-10-10T16:47:26.241Z,9.07
2022-10-10T16:49:52.942Z,9.30
2022-10-10T16:52:19.661Z,10.07
2022-10-10T16:54:51.178Z,8.43
2022-10-10T16:57:18.865Z,13.15
2022-10-10T16:59:45.544Z,11.95
2022-10-10T17:02:12.819Z,11.40
2022-10-10T17:04:39.586Z,9.82
2022-10-10T17:07:06.328Z,13.77
2022-10-10T17:09:33.041Z,15.55
2022-10-10T17:11:59.765Z,13.75
2022-10-10T17:14:26.501Z,15.13
2022-10-10T17:17:11.746Z,16.05
2022-10-10T17:19:39.522Z,14.05
2022-10-10T17:22:06.316Z,9.80
2022-10-10T17:24:33.083Z,16.27
2022-10-10T17:26:59.759Z,12.07
2022-10-10T17:29:26.481Z,16.30
2022-10-10T17:31:53.166Z,12.93
2022-10-10T17:34:19.879Z,14.30
2022-10-10T17:36:46.981Z,16.20
2022-10-10T17:39:13.744Z,18.38
2022-10-10T17:41:40.682Z,12.10
2022-10-10T17:44:10.613Z,14.45
2022-10-10T17:46:38.692Z,15.13
2022-10-10T17:49:08.239Z,13.50
2022-10-10T17:51:36.314Z,15.90
2022-10-10T17:54:04.317Z,17.85
2022-10-10T17:56:31.498Z,15.52
2022-10-10T17:59:01.273Z,13.60
2022-10-10T18:01:30.411Z,14.30
2022-10-10T18:03:57.452Z,14.70
2022-10-10T18:06:24.214Z,20.00
2022-10-10T18:08:52.741Z,14.40
2022-10-10T18:11:25.080Z,20.60
2022-10-10T18:13:52.450Z,19.13
2022-10-10T18:16:21.580Z,18.20
2022-10-10T18:18:51.352Z,13.98
2022-10-10T18:21:20.674Z,16.58
2022-10-10T18:23:47.878Z,19.42
2022-10-10T18:26:17.732Z,17.42
2022-10-10T18:28:44.690Z,19.88
2022-10-10T18:31:15.369Z,17.60
2022-10-10T18:33:44.678Z,15.10
2022-10-10T18:36:13.352Z,17.60
2022-10-10T18:38:40.733Z,16.98
2022-10-10T18:41:10.643Z,15.85
2022-10-10T18:43:38.494Z,19.27
2022-10-10T18:46:07.307Z,23.95
2022-10-10T18:48:34.982Z,23.48
2022-10-10T18:51:04.621Z,16.25
2022-10-10T18:53:34.666Z,15.55
2022-10-10T18:56:01.603Z,16.65
2022-10-10T18:58:29.683Z,20.42
2022-10-10T19:01:01.490Z,32.38
2022-10-10T19:03:29.210Z,21.80
2022-10-10T19:05:56.633Z,26.13
2022-10-10T19:08:23.473Z,20.42
2022-10-10T19:10:50.892Z,18.20
2022-10-10T19:13:18.613Z,19.90
2022-10-10T19:15:45.780Z,24.58
2022-10-10T19:18:12.743Z,18.88
2022-10-10T19:20:39.764Z,17.45
2022-10-10T19:23:06.776Z,18.83
2022-10-10T19:25:41.588Z,18.45
2022-10-10T19:28:08.690Z,19.50
2022-10-10T19:30:40.377Z,19.08
2022-10-10T19:33:07.503Z,21.20
2022-10-10T19:35:47.151Z,20.55
2022-10-10T19:38:19.486Z,21.48
2022-10-10T19:40:47.727Z,21.88
2022-10-10T19:43:15.537Z,23.45
2022-10-10T19:45:48.182Z,24.27
2022-10-10T19:48:15.630Z,22.38
2022-10-10T19:50:43.781Z,20.88
2022-10-10T19:53:12.946Z,24.88
2022-10-10T19:55:39.817Z,23.77
2022-10-10T19:58:06.901Z,25.02
2022-10-10T20:00:33.852Z,22.02
2022-10-10T20:03:00.523Z,19.73
2022-10-10T20:05:27.177Z,30.92
2022-10-10T20:07:53.946Z,23.20
2022-10-10T20:10:20.696Z,21.33
2022-10-10T20:12:47.662Z,22.10
2022-10-10T20:15:14.336Z,21.60
2022-10-10T20:17:41.346Z,21.80
2022-10-10T20:20:09.611Z,20.30
2022-10-10T20:22:36.520Z,24.33
2022-10-10T20:25:04.606Z,22.40
2022-10-10T20:27:31.625Z,26.63
2022-10-10T20:29:58.642Z,23.45
2022-10-10T20:32:25.614Z,26.48
2022-10-10T20:34:52.327Z,28.70
2022-10-10T20:37:19.043Z,28.23
2022-10-10T20:39:46.587Z,24.42
2022-10-10T20:42:13.454Z,26.70
2022-10-10T20:44:40.151Z,23.30
2022-10-10T20:47:06.943Z,25.38
2022-10-10T20:49:33.725Z,27.58
2022-10-10T20:52:00.497Z,25.25
2022-10-10T20:54:27.183Z,24.77
2022-10-10T20:56:53.876Z,25.13
2022-10-10T20:59:21.777Z,25.27
2022-10-10T21:01:48.596Z,25.90
2022-10-10T21:04:15.829Z,32.17
2022-10-10T21:06:43.196Z,26.23
2022-10-10T21:09:12.969Z,25.42
2022-10-10T21:11:40.687Z,24.08
2022-10-10T21:14:07.773Z,28.17
2022-10-10T21:16:37.085Z,25.80
2022-10-10T21:19:05.656Z,28.27
2022-10-10T21:21:34.918Z,28.00
2022-10-10T21:24:04.770Z,27.73
2022-10-10T21:26:32.339Z,26.50
2022-10-10T21:29:00.624Z,33.25
2022-10-10T21:31:30.597Z,23.65
2022-10-10T21:33:57.457Z,31.40
2022-10-10T21:36:25.710Z,31.83
2022-10-10T21:38:53.612Z,26.15
2022-10-10T21:41:21.109Z,28.55
2022-10-10T21:43:52.199Z,28.10
2022-10-10T21:46:23.454Z,24.85
2022-10-10T21:48:52.308Z,31.33
2022-10-10T21:51:20.177Z,27.13
2022-10-10T21:53:47.138Z,29.77
2022-10-10T21:56:14.508Z,35.58
2022-10-10T21:58:43.286Z,31.92
2022-10-10T22:01:11.298Z,29.05
2022-10-10T22:03:38.856Z,29.52
2022-10-10T22:06:08.397Z,29.35
2022-10-10T22:08:35.946Z,33.75
2022-10-10T22:11:05.319Z,29.55
2022-10-10T22:13:32.111Z,36.67
2022-10-10T22:15:59.410Z,25.15
2022-10-10T22:18:26.339Z,26.70
2022-10-10T22:20:53.460Z,29.60
2022-10-10T22:23:20.828Z,28.88
2022-10-10T22:25:49.723Z,26.13
2022-10-10T22:28:17.056Z,29.90
2022-10-10T22:30:44.671Z,30.48
2022-10-10T22:33:11.956Z,34.60
2022-10-10T22:35:38.830Z,32.70
2022-10-10T22:38:05.568Z,31.02
2022-10-10T22:40:32.691Z,33.47
2022-10-10T22:42:59.515Z,31.92
2022-10-10T22:45:26.306Z,33.00
2022-10-10T22:47:53.396Z,29.48
2022-10-10T22:50:20.177Z,35.20
2022-10-10T22:52:46.934Z,30.85
2022-10-10T22:55:18.239Z,29.02
2022-10-10T22:57:46.023Z,31.55
2022-10-10T23:00:13.426Z,29.48
2022-10-10T23:02:40.157Z,31.48
2022-10-10T23:05:07.565Z,30.63
2022-10-10T23:07:34.644Z,28.63
2022-10-10T23:10:01.580Z,35.65
2022-10-10T23:12:28.325Z,27.67
2022-10-10T23:14:55.014Z,31.05
2022-10-10T23:17:21.630Z,35.28
2022-10-10T23:19:48.273Z,28.80
2022-10-10T23:22:15.029Z,31.20
2022-10-10T23:24:41.838Z,33.78
2022-10-10T23:27:08.553Z,36.67
2022-10-10T23:29:48.165Z,32.80
2022-10-10T23:32:14.844Z,31.42
2022-10-10T23:34:41.489Z,30.77
2022-10-10T23:37:08.302Z,31.75
2022-10-10T23:39:34.948Z,27.98
2022-10-10T23:42:01.615Z,30.98
2022-10-10T23:44:28.471Z,35.80
2022-10-10T23:46:55.152Z,30.70
2022-10-10T23:49:21.779Z,32.53
2022-10-10T23:51:48.469Z,30.60
2022-10-10T23:54:15.163Z,34.65
2022-10-10T23:56:41.909Z,35.72
2022-10-10T23:59:08.637Z,42.22
